sensor_id;sensor_type;location;lat;lon;timestamp;pressure;altitude;pressure_sealevel;temperature;humidity
6435;BME280;3250;42.694;23.278;2023-05-19T00:01:06;95051.66;;;12.19;96.91
6435;BME280;3250;42.694;23.278;2023-05-19T00:03:33;95051.59;;;12.25;96.83
6435;BME280;3250;42.694;23.278;2023-05-19T00:06:01;95015.41;;;12.07;96.78
6435;BME280;3250;42.694;23.278;2023-05-19T00:08:29;95046.88;;;12.34;97.11
6435;BME280;3250;42.694;23.278;2023-05-19T00:10:57;95052.06;;;12.40;97.54
6435;BME280;3250;42.694;23.278;2023-05-19T00:13:22;95052.75;;;12.36;97.88
6435;BME280;3250;42.694;23.278;2023-05-19T00:15:49;95045.38;;;12.38;98.52
6435;BME280;3250;42.694;23.278;2023-05-19T00:18:15;95034.31;;;12.29;98.49
6435;BME280;3250;42.694;23.278;2023-05-19T00:20:41;95040.88;;;12.45;98.33
6435;BME280;3250;42.694;23.278;2023-05-19T00:23:06;95042.53;;;12.39;97.67
6435;BME280;3250;42.694;23.278;2023-05-19T00:25:32;95041.00;;;12.32;97.04
6435;BME280;3250;42.694;23.278;2023-05-19T00:27:57;95008.72;;;12.05;96.51
6435;BME280;3250;42.694;23.278;2023-05-19T00:30:23;95031.09;;;12.27;96.28
6435;BME280;3250;42.694;23.278;2023-05-19T00:32:50;95024.22;;;12.20;96.18
6435;BME280;3250;42.694;23.278;2023-05-19T00:35:15;95036.03;;;12.17;96.37
6435;BME280;3250;42.694;23.278;2023-05-19T00:37:40;95027.38;;;12.10;96.32
6435;BME280;3250;42.694;23.278;2023-05-19T00:40:06;95034.38;;;12.23;96.39
6435;BME280;3250;42.694;23.278;2023-05-19T00:42:32;95035.78;;;12.25;96.11
6435;BME280;3250;42.694;23.278;2023-05-19T00:44:58;95031.66;;;12.29;96.21
6435;BME280;3250;42.694;23.278;2023-05-19T00:47:24;95031.44;;;12.31;96.05
6435;BME280;3250;42.694;23.278;2023-05-19T00:49:49;95019.47;;;12.28;96.22
6435;BME280;3250;42.694;23.278;2023-05-19T00:52:15;95009.81;;;12.22;95.87
6435;BME280;3250;42.694;23.278;2023-05-19T00:54:40;95027.78;;;12.32;95.96
6435;BME280;3250;42.694;23.278;2023-05-19T00:57:06;95022.28;;;12.33;96.24
6435;BME280;3250;42.694;23.278;2023-05-19T00:59:31;95021.22;;;12.16;96.34
6435;BME280;3250;42.694;23.278;2023-05-19T01:01:57;95024.47;;;12.18;96.34
6435;BME280;3250;42.694;23.278;2023-05-19T01:04:22;95025.31;;;12.12;95.95
6435;BME280;3250;42.694;23.278;2023-05-19T01:06:50;95023.34;;;12.07;95.86
6435;BME280;3250;42.694;23.278;2023-05-19T01:09:20;95026.34;;;12.11;96.28
6435;BME280;3250;42.694;23.278;2023-05-19T01:11:45;95027.84;;;12.00;95.97
6435;BME280;3250;42.694;23.278;2023-05-19T01:14:11;95025.38;;;11.81;96.25
6435;BME280;3250;42.694;23.278;2023-05-19T01:16:41;95022.34;;;11.77;96.50
6435;BME280;3250;42.694;23.278;2023-05-19T01:31:11;95022.88;;;11.54;97.67
6435;BME280;3250;42.694;23.278;2023-05-19T01:33:36;95026.97;;;11.44;97.95
6435;BME280;3250;42.694;23.278;2023-05-19T01:36:06;95027.59;;;11.46;97.85
6435;BME280;3250;42.694;23.278;2023-05-19T01:38:33;95004.81;;;11.20;97.73
6435;BME280;3250;42.694;23.278;2023-05-19T01:40:59;95041.22;;;11.36;97.80
6435;BME280;3250;42.694;23.278;2023-05-19T01:43:28;95035.19;;;11.29;97.66
6435;BME280;3250;42.694;23.278;2023-05-19T01:45:54;95034.38;;;11.28;97.85
6435;BME280;3250;42.694;23.278;2023-05-19T01:48:23;95037.81;;;11.29;97.69
6435;BME280;3250;42.694;23.278;2023-05-19T01:50:49;95035.34;;;11.34;97.74
6435;BME280;3250;42.694;23.278;2023-05-19T01:53:14;95038.59;;;11.36;97.60
6435;BME280;3250;42.694;23.278;2023-05-19T01:55:47;95036.59;;;11.25;97.86
6435;BME280;3250;42.694;23.278;2023-05-19T02:13:52;95030.13;;;10.76;100.00
6435;BME280;3250;42.694;23.278;2023-05-19T02:16:23;95038.25;;;10.68;100.00
6435;BME280;3250;42.694;23.278;2023-05-19T02:18:52;95010.75;;;10.51;100.00
6435;BME280;3250;42.694;23.278;2023-05-19T02:21:18;95037.63;;;10.66;100.00
6435;BME280;3250;42.694;23.278;2023-05-19T02:23:44;95039.88;;;10.56;100.00
6435;BME280;3250;42.694;23.278;2023-05-19T02:26:09;95043.56;;;10.42;100.00
6435;BME280;3250;42.694;23.278;2023-05-19T02:28:35;95038.31;;;10.42;100.00
6435;BME280;3250;42.694;23.278;2023-05-19T02:31:03;95014.84;;;10.20;100.00
6435;BME280;3250;42.694;23.278;2023-05-19T02:33:34;95022.13;;;10.25;100.00
6435;BME280;3250;42.694;23.278;2023-05-19T02:36:00;95042.94;;;10.53;100.00
6435;BME280;3250;42.694;23.278;2023-05-19T02:38:25;95023.72;;;10.46;100.00
6435;BME280;3250;42.694;23.278;2023-05-19T02:40:51;95007.34;;;10.31;100.00
6435;BME280;3250;42.694;23.278;2023-05-19T02:43:17;95005.09;;;10.14;100.00
6435;BME280;3250;42.694;23.278;2023-05-19T02:45:43;95038.91;;;10.44;100.00
6435;BME280;3250;42.694;23.278;2023-05-19T02:48:08;95045.38;;;10.48;100.00
6435;BME280;3250;42.694;23.278;2023-05-19T02:50:34;95024.38;;;10.28;100.00
6435;BME280;3250;42.694;23.278;2023-05-19T02:52:59;95042.72;;;10.48;100.00
6435;BME280;3250;42.694;23.278;2023-05-19T02:55:25;95046.78;;;10.50;100.00
6435;BME280;3250;42.694;23.278;2023-05-19T02:57:50;95039.94;;;10.43;100.00
6435;BME280;3250;42.694;23.278;2023-05-19T03:00:16;95048.22;;;10.53;100.00
6435;BME280;3250;42.694;23.278;2023-05-19T03:02:41;95039.94;;;10.36;100.00
6435;BME280;3250;42.694;23.278;2023-05-19T03:05:08;95056.31;;;10.51;100.00
6435;BME280;3250;42.694;23.278;2023-05-19T03:07:34;95054.66;;;10.57;100.00
6435;BME280;3250;42.694;23.278;2023-05-19T03:10:00;95052.03;;;10.70;100.00
6435;BME280;3250;42.694;23.278;2023-05-19T03:12:28;95033.81;;;10.62;99.75
6435;BME280;3250;42.694;23.278;2023-05-19T03:14:53;95009.97;;;10.44;99.53
6435;BME280;3250;42.694;23.278;2023-05-19T03:17:19;95060.53;;;10.66;100.00
6435;BME280;3250;42.694;23.278;2023-05-19T03:19:44;95048.59;;;10.56;100.00
6435;BME280;3250;42.694;23.278;2023-05-19T03:22:10;95034.06;;;10.34;100.00
6435;BME280;3250;42.694;23.278;2023-05-19T03:24:35;95002.47;;;10.14;100.00
6435;BME280;3250;42.694;23.278;2023-05-19T03:27:01;95057.50;;;10.55;100.00
6435;BME280;3250;42.694;23.278;2023-05-19T03:29:29;95022.28;;;10.50;100.00
6435;BME280;3250;42.694;23.278;2023-05-19T03:31:55;95052.22;;;10.69;100.00
6435;BME280;3250;42.694;23.278;2023-05-19T03:34:20;95059.72;;;10.72;100.00
6435;BME280;3250;42.694;23.278;2023-05-19T03:36:46;95006.50;;;10.50;100.00
6435;BME280;3250;42.694;23.278;2023-05-19T03:39:14;95012.97;;;10.61;100.00
6435;BME280;3250;42.694;23.278;2023-05-19T03:41:39;95058.84;;;10.91;100.00
6435;BME280;3250;42.694;23.278;2023-05-19T03:44:05;95008.31;;;10.63;100.00
6435;BME280;3250;42.694;23.278;2023-05-19T03:46:30;95021.66;;;10.61;100.00
6435;BME280;3250;42.694;23.278;2023-05-19T03:48:56;95013.31;;;10.77;99.95
6435;BME280;3250;42.694;23.278;2023-05-19T03:51:21;95015.47;;;10.93;99.47
6435;BME280;3250;42.694;23.278;2023-05-19T03:53:46;95070.63;;;11.40;98.61
6435;BME280;3250;42.694;23.278;2023-05-19T03:56:12;95064.88;;;11.49;98.46
6435;BME280;3250;42.694;23.278;2023-05-19T03:58:39;94990.22;;;11.17;98.27
6435;BME280;3250;42.694;23.278;2023-05-19T04:01:07;95034.38;;;11.60;97.44
6435;BME280;3250;42.694;23.278;2023-05-19T04:03:33;95050.78;;;11.75;96.66
6435;BME280;3250;42.694;23.278;2023-05-19T04:05:58;95050.25;;;11.91;96.33
6435;BME280;3250;42.694;23.278;2023-05-19T04:08:24;95022.41;;;11.95;95.93
6435;BME280;3250;42.694;23.278;2023-05-19T04:10:50;95083.66;;;12.54;95.04
6435;BME280;3250;42.694;23.278;2023-05-19T04:13:15;95084.66;;;12.77;95.14
6435;BME280;3250;42.694;23.278;2023-05-19T04:15:40;95059.69;;;12.92;94.37
6435;BME280;3250;42.694;23.278;2023-05-19T04:18:06;95079.03;;;13.29;93.10
6435;BME280;3250;42.694;23.278;2023-05-19T04:20:31;95034.97;;;13.23;91.81
6435;BME280;3250;42.694;23.278;2023-05-19T04:22:57;95059.78;;;13.70;91.13
6435;BME280;3250;42.694;23.278;2023-05-19T04:25:22;95078.31;;;14.11;89.29
6435;BME280;3250;42.694;23.278;2023-05-19T04:27:49;95077.88;;;14.38;87.44
6435;BME280;3250;42.694;23.278;2023-05-19T04:30:14;95091.06;;;14.79;86.28
6435;BME280;3250;42.694;23.278;2023-05-19T04:32:46;95097.06;;;15.09;83.30
6435;BME280;3250;42.694;23.278;2023-05-19T04:35:12;95077.91;;;15.19;82.59
6435;BME280;3250;42.694;23.278;2023-05-19T04:37:37;95105.41;;;15.65;81.64
6435;BME280;3250;42.694;23.278;2023-05-19T04:40:03;95106.13;;;15.89;78.87
6435;BME280;3250;42.694;23.278;2023-05-19T04:42:30;95112.94;;;16.13;78.96
6435;BME280;3250;42.694;23.278;2023-05-19T04:44:57;95101.03;;;16.32;77.78
6435;BME280;3250;42.694;23.278;2023-05-19T04:47:22;95114.03;;;16.79;77.97
6435;BME280;3250;42.694;23.278;2023-05-19T04:49:52;95110.72;;;16.55;75.29
6435;BME280;3250;42.694;23.278;2023-05-19T04:52:19;95115.56;;;16.91;76.11
6435;BME280;3250;42.694;23.278;2023-05-19T04:54:46;95117.25;;;17.36;74.33
6435;BME280;3250;42.694;23.278;2023-05-19T04:57:11;95106.38;;;17.59;73.09
6435;BME280;3250;42.694;23.278;2023-05-19T04:59:37;95114.22;;;18.15;73.25
6435;BME280;3250;42.694;23.278;2023-05-19T05:02:02;95116.00;;;18.36;70.32
6435;BME280;3250;42.694;23.278;2023-05-19T05:04:28;95116.22;;;18.88;69.58
6435;BME280;3250;42.694;23.278;2023-05-19T05:06:54;95119.72;;;19.36;67.81
6435;BME280;3250;42.694;23.278;2023-05-19T05:09:19;95128.00;;;19.86;67.09
6435;BME280;3250;42.694;23.278;2023-05-19T05:11:45;95106.16;;;20.25;63.99
6435;BME280;3250;42.694;23.278;2023-05-19T05:14:11;95122.03;;;20.62;61.41
6435;BME280;3250;42.694;23.278;2023-05-19T05:16:36;95125.81;;;20.66;61.84
6435;BME280;3250;42.694;23.278;2023-05-19T05:19:02;95129.81;;;20.84;61.55
6435;BME280;3250;42.694;23.278;2023-05-19T05:21:28;95125.47;;;21.49;60.32
6435;BME280;3250;42.694;23.278;2023-05-19T05:23:54;95096.44;;;21.76;58.76
6435;BME280;3250;42.694;23.278;2023-05-19T05:26:20;95109.22;;;22.43;58.07
6435;BME280;3250;42.694;23.278;2023-05-19T05:28:48;95083.63;;;22.95;56.23
6435;BME280;3250;42.694;23.278;2023-05-19T05:31:14;95102.69;;;23.75;54.81
6435;BME280;3250;42.694;23.278;2023-05-19T05:33:40;95111.78;;;24.03;53.36
6435;BME280;3250;42.694;23.278;2023-05-19T05:36:06;95103.16;;;24.43;52.20
6435;BME280;3250;42.694;23.278;2023-05-19T05:38:31;95092.31;;;24.67;51.72
6435;BME280;3250;42.694;23.278;2023-05-19T05:40:57;95120.81;;;25.06;51.08
6435;BME280;3250;42.694;23.278;2023-05-19T05:43:22;95117.31;;;25.05;50.07
6435;BME280;3250;42.694;23.278;2023-05-19T05:45:48;95112.13;;;25.09;48.80
6435;BME280;3250;42.694;23.278;2023-05-19T05:48:13;95101.16;;;24.87;49.86
6435;BME280;3250;42.694;23.278;2023-05-19T05:50:41;95121.81;;;25.10;50.48
6435;BME280;3250;42.694;23.278;2023-05-19T05:53:07;95115.44;;;24.31;50.12
6435;BME280;3250;42.694;23.278;2023-05-19T05:55:33;95111.09;;;24.35;51.19
6435;BME280;3250;42.694;23.278;2023-05-19T05:57:59;95118.88;;;24.36;51.16
6435;BME280;3250;42.694;23.278;2023-05-19T06:00:26;95117.56;;;24.53;51.27
6435;BME280;3250;42.694;23.278;2023-05-19T06:02:52;95122.09;;;24.38;51.42
6435;BME280;3250;42.694;23.278;2023-05-19T06:05:18;95125.88;;;24.14;54.22
6435;BME280;3250;42.694;23.278;2023-05-19T06:07:43;95130.00;;;24.06;51.90
6435;BME280;3250;42.694;23.278;2023-05-19T06:10:09;95133.47;;;24.12;50.90
6435;BME280;3250;42.694;23.278;2023-05-19T06:12:34;95102.66;;;23.56;52.81
6435;BME280;3250;42.694;23.278;2023-05-19T06:15:03;95131.75;;;22.91;53.74
6435;BME280;3250;42.694;23.278;2023-05-19T06:17:28;95106.75;;;22.52;55.17
6435;BME280;3250;42.694;23.278;2023-05-19T06:19:54;95122.31;;;22.50;56.88
6435;BME280;3250;42.694;23.278;2023-05-19T06:22:19;95120.59;;;22.69;57.63
6435;BME280;3250;42.694;23.278;2023-05-19T06:24:45;95115.13;;;22.40;55.51
6435;BME280;3250;42.694;23.278;2023-05-19T06:27:12;95107.50;;;22.57;57.06
6435;BME280;3250;42.694;23.278;2023-05-19T06:29:37;95129.94;;;22.77;59.15
6435;BME280;3250;42.694;23.278;2023-05-19T06:32:03;95131.16;;;22.94;56.70
6435;BME280;3250;42.694;23.278;2023-05-19T06:34:28;95125.22;;;22.98;55.60
6435;BME280;3250;42.694;23.278;2023-05-19T06:36:54;95097.41;;;22.83;56.34
6435;BME280;3250;42.694;23.278;2023-05-19T06:39:19;95126.50;;;23.05;57.44
6435;BME280;3250;42.694;23.278;2023-05-19T06:41:45;95128.22;;;23.25;57.50
6435;BME280;3250;42.694;23.278;2023-05-19T06:44:10;95118.03;;;23.46;58.14
6435;BME280;3250;42.694;23.278;2023-05-19T06:46:35;95121.34;;;23.66;56.99
6435;BME280;3250;42.694;23.278;2023-05-19T06:49:01;95127.28;;;23.63;55.32
6435;BME280;3250;42.694;23.278;2023-05-19T06:51:27;95129.97;;;23.63;54.97
6435;BME280;3250;42.694;23.278;2023-05-19T06:53:52;95126.16;;;23.69;55.76
6435;BME280;3250;42.694;23.278;2023-05-19T06:56:17;95132.56;;;23.74;55.72
6435;BME280;3250;42.694;23.278;2023-05-19T06:58:43;95134.63;;;23.82;57.18
6435;BME280;3250;42.694;23.278;2023-05-19T07:01:09;95141.59;;;23.83;52.55
6435;BME280;3250;42.694;23.278;2023-05-19T07:03:34;95139.44;;;23.85;56.74
6435;BME280;3250;42.694;23.278;2023-05-19T07:06:00;95138.44;;;23.99;55.15
6435;BME280;3250;42.694;23.278;2023-05-19T07:08:27;95140.63;;;24.21;54.79
6435;BME280;3250;42.694;23.278;2023-05-19T07:10:52;95144.63;;;24.24;53.32
6435;BME280;3250;42.694;23.278;2023-05-19T07:13:20;95144.63;;;24.24;53.07
6435;BME280;3250;42.694;23.278;2023-05-19T07:15:45;95144.91;;;24.22;54.87
6435;BME280;3250;42.694;23.278;2023-05-19T07:18:13;95149.72;;;24.25;52.13
6435;BME280;3250;42.694;23.278;2023-05-19T07:20:38;95144.91;;;24.22;51.46
6435;BME280;3250;42.694;23.278;2023-05-19T07:23:03;95147.22;;;23.86;52.13
6435;BME280;3250;42.694;23.278;2023-05-19T07:25:29;95150.34;;;23.41;53.22
6435;BME280;3250;42.694;23.278;2023-05-19T07:27:55;95149.91;;;23.33;53.66
6435;BME280;3250;42.694;23.278;2023-05-19T07:30:21;95136.34;;;23.15;53.84
6435;BME280;3250;42.694;23.278;2023-05-19T07:32:46;95143.09;;;23.41;58.38
6435;BME280;3250;42.694;23.278;2023-05-19T07:35:12;95143.22;;;23.84;55.25
6435;BME280;3250;42.694;23.278;2023-05-19T07:37:37;95122.31;;;23.76;53.63
6435;BME280;3250;42.694;23.278;2023-05-19T07:40:03;95145.44;;;23.77;53.51
6435;BME280;3250;42.694;23.278;2023-05-19T07:42:30;95129.13;;;23.68;53.39
6435;BME280;3250;42.694;23.278;2023-05-19T07:44:57;95145.34;;;23.87;54.53
6435;BME280;3250;42.694;23.278;2023-05-19T07:47:22;95136.84;;;23.75;53.65
6435;BME280;3250;42.694;23.278;2023-05-19T07:49:48;95134.56;;;23.34;52.31
6435;BME280;3250;42.694;23.278;2023-05-19T07:52:13;95146.94;;;23.01;53.06
6435;BME280;3250;42.694;23.278;2023-05-19T07:54:38;95143.72;;;22.65;52.50
6435;BME280;3250;42.694;23.278;2023-05-19T07:57:04;95138.16;;;22.51;53.54
6435;BME280;3250;42.694;23.278;2023-05-19T07:59:30;95124.34;;;22.73;55.63
6435;BME280;3250;42.694;23.278;2023-05-19T08:01:55;95128.09;;;22.72;55.49
6435;BME280;3250;42.694;23.278;2023-05-19T08:04:21;95099.16;;;22.64;54.40
6435;BME280;3250;42.694;23.278;2023-05-19T08:06:46;95138.47;;;23.18;54.88
6435;BME280;3250;42.694;23.278;2023-05-19T08:09:12;95139.81;;;23.44;54.72
6435;BME280;3250;42.694;23.278;2023-05-19T08:11:37;95103.72;;;23.55;54.37
6435;BME280;3250;42.694;23.278;2023-05-19T08:14:02;95118.38;;;23.92;53.40
6435;BME280;3250;42.694;23.278;2023-05-19T08:16:28;95131.03;;;24.34;53.78
6435;BME280;3250;42.694;23.278;2023-05-19T08:18:53;95144.56;;;24.66;52.26
6435;BME280;3250;42.694;23.278;2023-05-19T08:21:20;95144.34;;;24.81;49.38
6435;BME280;3250;42.694;23.278;2023-05-19T08:23:45;95141.34;;;24.83;49.99
6435;BME280;3250;42.694;23.278;2023-05-19T08:26:11;95145.72;;;24.79;50.68
6435;BME280;3250;42.694;23.278;2023-05-19T08:28:36;95135.03;;;24.36;50.86
6435;BME280;3250;42.694;23.278;2023-05-19T08:31:02;95137.59;;;23.80;52.64
6435;BME280;3250;42.694;23.278;2023-05-19T08:33:28;95136.59;;;23.18;50.57
6435;BME280;3250;42.694;23.278;2023-05-19T08:35:55;95118.00;;;22.93;54.08
6435;BME280;3250;42.694;23.278;2023-05-19T08:38:22;95131.81;;;23.10;52.73
6435;BME280;3250;42.694;23.278;2023-05-19T08:40:47;95130.22;;;23.09;54.58
6435;BME280;3250;42.694;23.278;2023-05-19T08:43:13;95132.22;;;22.93;52.34
6435;BME280;3250;42.694;23.278;2023-05-19T08:45:42;95095.16;;;22.62;53.97
6435;BME280;3250;42.694;23.278;2023-05-19T08:48:07;95130.09;;;22.56;55.13
6435;BME280;3250;42.694;23.278;2023-05-19T08:50:34;95126.00;;;22.64;53.15
6435;BME280;3250;42.694;23.278;2023-05-19T08:53:07;95123.13;;;22.55;52.72
6435;BME280;3250;42.694;23.278;2023-05-19T08:55:46;95127.69;;;22.50;54.50
6435;BME280;3250;42.694;23.278;2023-05-19T08:58:15;95126.53;;;22.22;53.75
6435;BME280;3250;42.694;23.278;2023-05-19T09:00:45;95086.75;;;21.85;53.32
6435;BME280;3250;42.694;23.278;2023-05-19T09:03:10;95109.47;;;22.03;55.37
6435;BME280;3250;42.694;23.278;2023-05-19T09:05:37;95104.56;;;22.20;56.67
6435;BME280;3250;42.694;23.278;2023-05-19T09:08:03;95103.69;;;22.30;54.51
6435;BME280;3250;42.694;23.278;2023-05-19T09:10:29;95078.69;;;22.39;55.41
6435;BME280;3250;42.694;23.278;2023-05-19T09:12:54;95104.28;;;22.61;52.83
6435;BME280;3250;42.694;23.278;2023-05-19T09:15:25;95082.72;;;22.37;54.47
6435;BME280;3250;42.694;23.278;2023-05-19T09:17:50;95074.47;;;22.28;53.43
6435;BME280;3250;42.694;23.278;2023-05-19T09:20:16;95102.41;;;22.17;54.82
6435;BME280;3250;42.694;23.278;2023-05-19T09:22:45;95102.47;;;22.12;54.21
6435;BME280;3250;42.694;23.278;2023-05-19T09:25:23;95102.47;;;22.12;54.85
6435;BME280;3250;42.694;23.278;2023-05-19T09:27:49;95052.41;;;21.23;56.80
6435;BME280;3250;42.694;23.278;2023-05-19T09:30:17;95099.75;;;21.48;57.43
6435;BME280;3250;42.694;23.278;2023-05-19T09:32:44;95097.38;;;21.36;56.17
6435;BME280;3250;42.694;23.278;2023-05-19T09:35:11;95103.53;;;21.41;58.90
6435;BME280;3250;42.694;23.278;2023-05-19T09:37:40;95090.19;;;20.96;54.97
6435;BME280;3250;42.694;23.278;2023-05-19T09:40:09;95099.28;;;21.05;57.03
6435;BME280;3250;42.694;23.278;2023-05-19T09:42:39;95099.81;;;21.07;57.31
6435;BME280;3250;42.694;23.278;2023-05-19T09:45:05;95058.06;;;20.86;56.98
6435;BME280;3250;42.694;23.278;2023-05-19T09:47:39;95102.75;;;21.26;55.86
6435;BME280;3250;42.694;23.278;2023-05-19T09:50:06;95096.28;;;21.37;59.26
6435;BME280;3250;42.694;23.278;2023-05-19T09:52:41;95092.78;;;21.52;61.41
6435;BME280;3250;42.694;23.278;2023-05-19T09:55:11;95094.34;;;21.58;55.27
6435;BME280;3250;42.694;23.278;2023-05-19T09:57:38;95085.03;;;21.40;54.73
6435;BME280;3250;42.694;23.278;2023-05-19T10:00:07;95089.84;;;21.53;56.43
6435;BME280;3250;42.694;23.278;2023-05-19T10:02:40;95078.22;;;21.73;56.87
6435;BME280;3250;42.694;23.278;2023-05-19T10:05:11;95080.44;;;21.51;53.42
6435;BME280;3250;42.694;23.278;2023-05-19T10:07:39;95082.56;;;21.54;55.26
6435;BME280;3250;42.694;23.278;2023-05-19T10:10:10;95080.38;;;21.66;55.36
6435;BME280;3250;42.694;23.278;2023-05-19T10:12:37;95066.25;;;21.45;55.16
6435;BME280;3250;42.694;23.278;2023-05-19T10:15:05;95056.09;;;21.37;55.29
6435;BME280;3250;42.694;23.278;2023-05-19T10:17:31;95069.75;;;21.40;55.57
6435;BME280;3250;42.694;23.278;2023-05-19T10:19:58;95068.44;;;21.43;59.20
6435;BME280;3250;42.694;23.278;2023-05-19T10:22:23;95081.31;;;21.36;56.71
6435;BME280;3250;42.694;23.278;2023-05-19T10:24:48;95067.13;;;21.35;55.31
6435;BME280;3250;42.694;23.278;2023-05-19T10:27:15;95069.22;;;21.38;54.62
6435;BME280;3250;42.694;23.278;2023-05-19T10:29:47;95068.69;;;21.41;53.40
6435;BME280;3250;42.694;23.278;2023-05-19T10:32:16;95070.56;;;21.41;51.92
6435;BME280;3250;42.694;23.278;2023-05-19T10:38:07;95057.66;;;21.58;54.91
6435;BME280;3250;42.694;23.278;2023-05-19T10:44:04;95062.88;;;21.83;53.67
6435;BME280;3250;42.694;23.278;2023-05-19T10:46:31;95044.34;;;21.92;53.54
6435;BME280;3250;42.694;23.278;2023-05-19T10:48:56;95057.69;;;22.07;53.65
6435;BME280;3250;42.694;23.278;2023-05-19T10:51:32;95054.41;;;22.15;51.48
6435;BME280;3250;42.694;23.278;2023-05-19T10:54:00;95051.72;;;22.15;50.07
6435;BME280;3250;42.694;23.278;2023-05-19T10:56:31;95052.31;;;22.07;52.28
6435;BME280;3250;42.694;23.278;2023-05-19T10:58:59;95057.13;;;22.10;51.16
6435;BME280;3250;42.694;23.278;2023-05-19T11:01:34;95042.19;;;21.94;49.81
6435;BME280;3250;42.694;23.278;2023-05-19T11:04:07;95044.06;;;21.99;49.54
6435;BME280;3250;42.694;23.278;2023-05-19T11:06:36;95049.16;;;21.95;50.95
6435;BME280;3250;42.694;23.278;2023-05-19T11:09:12;95047.53;;;21.99;54.19
6435;BME280;3250;42.694;23.278;2023-05-19T11:11:51;95040.72;;;22.17;52.02
6435;BME280;3250;42.694;23.278;2023-05-19T11:14:21;95049.25;;;22.29;52.16
6435;BME280;3250;42.694;23.278;2023-05-19T11:16:51;95054.84;;;22.33;49.94
6435;BME280;3250;42.694;23.278;2023-05-19T11:21:51;95046.22;;;22.36;47.79
6435;BME280;3250;42.694;23.278;2023-05-19T11:24:42;95035.22;;;22.37;48.56
6435;BME280;3250;42.694;23.278;2023-05-19T11:32:34;95042.28;;;22.62;46.87
6435;BME280;3250;42.694;23.278;2023-05-19T11:35:03;95038.19;;;22.70;53.30
6435;BME280;3250;42.694;23.278;2023-05-19T11:37:30;94999.19;;;22.48;48.74
6435;BME280;3250;42.694;23.278;2023-05-19T11:39:57;95033.09;;;22.68;47.64
6435;BME280;3250;42.694;23.278;2023-05-19T11:42:22;95040.81;;;22.41;46.31
6435;BME280;3250;42.694;23.278;2023-05-19T11:44:48;95048.75;;;22.22;47.99
6435;BME280;3250;42.694;23.278;2023-05-19T11:47:13;95035.28;;;21.83;49.40
6435;BME280;3250;42.694;23.278;2023-05-19T11:49:43;95034.59;;;21.57;49.84
6435;BME280;3250;42.694;23.278;2023-05-19T11:52:10;95024.50;;;21.39;50.65
6435;BME280;3250;42.694;23.278;2023-05-19T11:54:35;95042.47;;;21.33;50.83
6435;BME280;3250;42.694;23.278;2023-05-19T11:57:02;95040.91;;;21.27;51.77
6435;BME280;3250;42.694;23.278;2023-05-19T11:59:29;95050.81;;;21.22;50.96
6435;BME280;3250;42.694;23.278;2023-05-19T12:01:57;95050.59;;;20.93;53.61
6435;BME280;3250;42.694;23.278;2023-05-19T12:04:25;95035.09;;;20.49;55.51
6435;BME280;3250;42.694;23.278;2023-05-19T12:06:51;95062.06;;;20.32;56.02
6435;BME280;3250;42.694;23.278;2023-05-19T12:09:18;95047.56;;;19.83;57.70
6435;BME280;3250;42.694;23.278;2023-05-19T12:11:44;95075.09;;;19.98;58.54
6435;BME280;3250;42.694;23.278;2023-05-19T12:14:10;95081.91;;;19.49;60.21
6435;BME280;3250;42.694;23.278;2023-05-19T12:16:36;95097.75;;;19.23;61.36
6435;BME280;3250;42.694;23.278;2023-05-19T12:19:04;95109.91;;;19.04;63.63
6435;BME280;3250;42.694;23.278;2023-05-19T12:21:30;95112.03;;;18.65;65.85
6435;BME280;3250;42.694;23.278;2023-05-19T12:23:57;95111.56;;;18.41;67.90
6435;BME280;3250;42.694;23.278;2023-05-19T12:26:23;95117.16;;;18.18;70.00
6435;BME280;3250;42.694;23.278;2023-05-19T12:28:49;95079.00;;;17.86;70.88
6435;BME280;3250;42.694;23.278;2023-05-19T12:31:16;95115.31;;;18.19;69.89
6435;BME280;3250;42.694;23.278;2023-05-19T12:33:41;95093.69;;;17.88;69.48
6435;BME280;3250;42.694;23.278;2023-05-19T12:36:08;95100.06;;;17.65;68.94
6435;BME280;3250;42.694;23.278;2023-05-19T12:38:34;95099.31;;;17.48;69.52
6435;BME280;3250;42.694;23.278;2023-05-19T12:41:01;95083.22;;;17.38;69.23
6435;BME280;3250;42.694;23.278;2023-05-19T12:43:27;95070.16;;;17.37;69.44
6435;BME280;3250;42.694;23.278;2023-05-19T12:45:52;95063.16;;;17.52;69.68
6435;BME280;3250;42.694;23.278;2023-05-19T12:48:20;95084.81;;;17.83;69.56
6435;BME280;3250;42.694;23.278;2023-05-19T12:50:46;95074.38;;;18.03;68.85
6435;BME280;3250;42.694;23.278;2023-05-19T12:53:13;95062.91;;;18.29;65.91
6435;BME280;3250;42.694;23.278;2023-05-19T12:55:40;95063.03;;;18.44;63.58
6435;BME280;3250;42.694;23.278;2023-05-19T12:58:07;95057.44;;;18.46;63.16
6435;BME280;3250;42.694;23.278;2023-05-19T13:00:32;95063.47;;;18.63;63.18
6435;BME280;3250;42.694;23.278;2023-05-19T13:03:01;95051.25;;;18.67;57.90
6435;BME280;3250;42.694;23.278;2023-05-19T13:05:30;95053.69;;;18.74;58.52
6435;BME280;3250;42.694;23.278;2023-05-19T13:08:05;95049.44;;;18.78;59.74
6435;BME280;3250;42.694;23.278;2023-05-19T13:10:33;95041.50;;;18.88;58.20
6435;BME280;3250;42.694;23.278;2023-05-19T13:12:59;95042.13;;;19.00;57.44
6435;BME280;3250;42.694;23.278;2023-05-19T13:15:29;95046.72;;;19.10;58.95
6435;BME280;3250;42.694;23.278;2023-05-19T13:18:03;95045.19;;;19.24;57.94
6435;BME280;3250;42.694;23.278;2023-05-19T13:20:30;95048.69;;;19.35;57.79
6435;BME280;3250;42.694;23.278;2023-05-19T13:22:55;95028.41;;;19.39;58.45
6435;BME280;3250;42.694;23.278;2023-05-19T13:25:21;95019.88;;;19.37;57.29
6435;BME280;3250;42.694;23.278;2023-05-19T13:27:47;95039.50;;;19.63;55.56
6435;BME280;3250;42.694;23.278;2023-05-19T13:30:13;95022.09;;;19.55;55.31
6435;BME280;3250;42.694;23.278;2023-05-19T13:32:39;95049.13;;;19.74;55.52
6435;BME280;3250;42.694;23.278;2023-05-19T13:35:05;95025.56;;;19.55;55.05
6435;BME280;3250;42.694;23.278;2023-05-19T13:37:31;95042.72;;;19.70;53.97
6435;BME280;3250;42.694;23.278;2023-05-19T13:39:56;95045.13;;;19.76;54.40
6435;BME280;3250;42.694;23.278;2023-05-19T13:42:22;95030.38;;;19.58;53.41
6435;BME280;3250;42.694;23.278;2023-05-19T13:44:47;95044.25;;;19.50;54.67
6435;BME280;3250;42.694;23.278;2023-05-19T13:47:13;95043.19;;;19.51;55.15
6435;BME280;3250;42.694;23.278;2023-05-19T13:49:38;95035.44;;;19.55;54.38